sensor_id;sensor_type;location;lat;lon;timestamp;pressure;altitude;pressure_sealevel;temperature;humidity
28797;BME280;24974;54.444;18.560;2023-05-19T00:02:12;102717.34;;;11.05;58.53
28797;BME280;24974;54.444;18.560;2023-05-19T00:04:45;102707.50;;;11.14;58.01
28797;BME280;24974;54.444;18.560;2023-05-19T00:07:17;102711.75;;;11.27;57.75
28797;BME280;24974;54.444;18.560;2023-05-19T00:09:50;102710.19;;;11.04;57.89
28797;BME280;24974;54.444;18.560;2023-05-19T00:12:22;102711.13;;;11.15;57.67
28797;BME280;24974;54.444;18.560;2023-05-19T00:14:53;102715.16;;;10.43;60.24
28797;BME280;24974;54.444;18.560;2023-05-19T00:17:24;102709.31;;;10.67;59.98
28797;BME280;24974;54.444;18.560;2023-05-19T00:19:55;102713.41;;;10.91;58.72
28797;BME280;24974;54.444;18.560;2023-05-19T00:22:25;102717.22;;;10.90;58.40
28797;BME280;24974;54.444;18.560;2023-05-19T00:24:57;102716.94;;;10.86;58.93
28797;BME280;24974;54.444;18.560;2023-05-19T00:27:28;102714.53;;;10.95;58.45
28797;BME280;24974;54.444;18.560;2023-05-19T00:29:59;102720.50;;;10.87;59.21
28797;BME280;24974;54.444;18.560;2023-05-19T04:55:51;102720.63;;;13.41;52.75
28797;BME280;24974;54.444;18.560;2023-05-19T04:58:22;102728.03;;;13.66;52.31
28797;BME280;24974;54.444;18.560;2023-05-19T05:00:55;102718.94;;;14.25;50.99
28797;BME280;24974;54.444;18.560;2023-05-19T05:03:28;102726.81;;;13.97;51.79
28797;BME280;24974;54.444;18.560;2023-05-19T05:06:00;102729.91;;;13.81;51.91
28797;BME280;24974;54.444;18.560;2023-05-19T05:08:31;102733.63;;;14.15;51.43
28797;BME280;24974;54.444;18.560;2023-05-19T05:11:02;102726.06;;;14.36;51.11
28797;BME280;24974;54.444;18.560;2023-05-19T05:13:34;102728.47;;;13.93;51.78
28797;BME280;24974;54.444;18.560;2023-05-19T05:16:05;102733.72;;;14.00;51.76
28797;BME280;24974;54.444;18.560;2023-05-19T05:18:38;102729.31;;;13.94;52.18
28797;BME280;24974;54.444;18.560;2023-05-19T05:21:09;102734.78;;;14.59;51.26
28797;BME280;24974;54.444;18.560;2023-05-19T05:23:40;102727.06;;;14.06;52.16
28797;BME280;24974;54.444;18.560;2023-05-19T05:26:18;102726.69;;;14.23;51.61
28797;BME280;24974;54.444;18.560;2023-05-19T05:28:51;102722.72;;;14.44;51.40
28797;BME280;24974;54.444;18.560;2023-05-19T05:31:22;102726.59;;;14.38;51.90
28797;BME280;24974;54.444;18.560;2023-05-19T05:33:53;102725.38;;;14.60;50.96
28797;BME280;24974;54.444;18.560;2023-05-19T05:36:27;102723.78;;;14.93;50.74
28797;BME280;24974;54.444;18.560;2023-05-19T05:38:58;102723.56;;;15.18;49.55
28797;BME280;24974;54.444;18.560;2023-05-19T05:41:30;102736.84;;;14.82;51.14
28797;BME280;24974;54.444;18.560;2023-05-19T05:44:07;102720.97;;;15.27;49.91
28797;BME280;24974;54.444;18.560;2023-05-19T05:46:39;102732.47;;;15.39;50.20
28797;BME280;24974;54.444;18.560;2023-05-19T05:49:10;102732.91;;;15.80;49.41
28797;BME280;24974;54.444;18.560;2023-05-19T05:51:46;102732.63;;;15.82;48.95
28797;BME280;24974;54.444;18.560;2023-05-19T05:54:18;102729.63;;;15.49;49.43
28797;BME280;24974;54.444;18.560;2023-05-19T05:56:50;102733.25;;;15.74;49.38
28797;BME280;24974;54.444;18.560;2023-05-19T05:59:21;102728.00;;;15.14;50.54
28797;BME280;24974;54.444;18.560;2023-05-19T06:01:52;102722.59;;;15.57;49.57
28797;BME280;24974;54.444;18.560;2023-05-19T06:04:24;102731.44;;;15.59;49.70
28797;BME280;24974;54.444;18.560;2023-05-19T06:06:55;102728.38;;;15.31;50.55
28797;BME280;24974;54.444;18.560;2023-05-19T06:09:31;102734.13;;;15.69;49.93
28797;BME280;24974;54.444;18.560;2023-05-19T06:12:03;102740.31;;;15.56;49.68
28797;BME280;24974;54.444;18.560;2023-05-19T06:14:39;102735.78;;;15.41;49.80
28797;BME280;24974;54.444;18.560;2023-05-19T06:17:21;102739.97;;;15.68;49.38
28797;BME280;24974;54.444;18.560;2023-05-19T06:19:53;102738.72;;;15.79;49.39
28797;BME280;24974;54.444;18.560;2023-05-19T06:22:23;102737.19;;;15.68;49.21
28797;BME280;24974;54.444;18.560;2023-05-19T06:24:54;102745.75;;;16.38;48.07
28797;BME280;24974;54.444;18.560;2023-05-19T06:27:25;102748.59;;;15.90;49.30
28797;BME280;24974;54.444;18.560;2023-05-19T06:29:56;102740.63;;;15.54;50.32
28797;BME280;24974;54.444;18.560;2023-05-19T06:32:28;102748.44;;;16.24;49.35
28797;BME280;24974;54.444;18.560;2023-05-19T06:35:01;102750.06;;;16.06;49.76
28797;BME280;24974;54.444;18.560;2023-05-19T06:37:32;102745.31;;;16.87;47.54
28797;BME280;24974;54.444;18.560;2023-05-19T06:40:03;102754.44;;;16.31;49.38
28797;BME280;24974;54.444;18.560;2023-05-19T06:42:35;102756.78;;;16.43;49.22
28797;BME280;24974;54.444;18.560;2023-05-19T06:45:18;102742.47;;;16.12;50.32
28797;BME280;24974;54.444;18.560;2023-05-19T06:47:53;102747.22;;;16.73;48.96
28797;BME280;24974;54.444;18.560;2023-05-19T06:50:24;102744.31;;;16.59;49.67
28797;BME280;24974;54.444;18.560;2023-05-19T06:52:55;102752.72;;;16.92;48.82
28797;BME280;24974;54.444;18.560;2023-05-19T06:55:28;102748.69;;;17.03;48.96
28797;BME280;24974;54.444;18.560;2023-05-19T06:57:59;102745.09;;;17.02;48.78
28797;BME280;24974;54.444;18.560;2023-05-19T07:00:30;102748.41;;;16.86;49.02
28797;BME280;24974;54.444;18.560;2023-05-19T07:03:01;102747.78;;;16.89;48.53
28797;BME280;24974;54.444;18.560;2023-05-19T07:05:33;102741.34;;;16.74;47.50
28797;BME280;24974;54.444;18.560;2023-05-19T07:08:05;102739.16;;;17.23;47.95
28797;BME280;24974;54.444;18.560;2023-05-19T07:10:39;102741.91;;;16.76;48.88
28797;BME280;24974;54.444;18.560;2023-05-19T07:13:14;102755.63;;;16.87;48.23
28797;BME280;24974;54.444;18.560;2023-05-19T07:15:45;102745.97;;;16.41;49.69
28797;BME280;24974;54.444;18.560;2023-05-19T07:18:21;102747.56;;;16.66;49.43
28797;BME280;24974;54.444;18.560;2023-05-19T07:20:52;102745.50;;;16.15;50.43
28797;BME280;24974;54.444;18.560;2023-05-19T07:23:24;102745.75;;;16.38;49.40
28797;BME280;24974;54.444;18.560;2023-05-19T07:25:55;102748.44;;;16.24;50.22
28797;BME280;24974;54.444;18.560;2023-05-19T07:28:26;102735.03;;;16.50;49.50
28797;BME280;24974;54.444;18.560;2023-05-19T07:30:57;102742.78;;;16.53;50.12
28797;BME280;24974;54.444;18.560;2023-05-19T07:33:28;102740.13;;;16.99;49.10
28797;BME280;24974;54.444;18.560;2023-05-19T07:35:59;102736.03;;;16.78;49.01
28797;BME280;24974;54.444;18.560;2023-05-19T07:38:30;102738.00;;;16.77;49.15
28797;BME280;24974;54.444;18.560;2023-05-19T07:41:03;102739.63;;;16.78;49.49
28797;BME280;24974;54.444;18.560;2023-05-19T07:43:34;102735.63;;;16.66;49.42
28797;BME280;24974;54.444;18.560;2023-05-19T07:46:05;102741.03;;;16.57;49.80
28797;BME280;24974;54.444;18.560;2023-05-19T07:48:36;102736.56;;;16.80;49.33
28797;BME280;24974;54.444;18.560;2023-05-19T07:51:07;102736.63;;;16.94;49.25
28797;BME280;24974;54.444;18.560;2023-05-19T07:53:39;102732.97;;;17.72;48.22
28797;BME280;24974;54.444;18.560;2023-05-19T07:56:10;102737.59;;;17.63;47.48
28797;BME280;24974;54.444;18.560;2023-05-19T07:58:41;102736.13;;;17.52;47.63
28797;BME280;24974;54.444;18.560;2023-05-19T08:01:12;102737.97;;;17.56;47.79
28797;BME280;24974;54.444;18.560;2023-05-19T08:03:43;102733.72;;;18.05;46.56
28797;BME280;24974;54.444;18.560;2023-05-19T08:06:14;102739.22;;;17.64;47.39
28797;BME280;24974;54.444;18.560;2023-05-19T08:11:39;102743.28;;;17.85;47.47
28797;BME280;24974;54.444;18.560;2023-05-19T08:14:10;102739.41;;;17.40;48.15
28797;BME280;24974;54.444;18.560;2023-05-19T08:16:41;102744.94;;;17.26;48.10
28797;BME280;24974;54.444;18.560;2023-05-19T08:19:13;102736.91;;;17.71;47.75
28797;BME280;24974;54.444;18.560;2023-05-19T08:21:44;102743.34;;;18.35;46.73
28797;BME280;24974;54.444;18.560;2023-05-19T08:24:14;102738.56;;;18.13;46.81
28797;BME280;24974;54.444;18.560;2023-05-19T08:26:45;102730.13;;;17.91;47.19
28797;BME280;24974;54.444;18.560;2023-05-19T08:29:16;102727.44;;;17.86;46.92
28797;BME280;24974;54.444;18.560;2023-05-19T08:31:47;102745.38;;;17.47;48.56
28797;BME280;24974;54.444;18.560;2023-05-19T08:34:18;102737.50;;;18.37;46.85
28797;BME280;24974;54.444;18.560;2023-05-19T08:36:49;102733.91;;;18.23;47.44
28797;BME280;24974;54.444;18.560;2023-05-19T08:39:20;102738.69;;;18.44;46.93
28797;BME280;24974;54.444;18.560;2023-05-19T08:41:56;102739.91;;;18.52;46.21
28797;BME280;24974;54.444;18.560;2023-05-19T08:44:27;102732.50;;;18.48;46.66
28797;BME280;24974;54.444;18.560;2023-05-19T08:47:01;102740.41;;;17.91;48.20
28797;BME280;24974;54.444;18.560;2023-05-19T08:49:36;102736.44;;;17.64;48.22
28797;BME280;24974;54.444;18.560;2023-05-19T08:52:26;102744.22;;;18.22;47.10
28797;BME280;24974;54.444;18.560;2023-05-19T08:55:07;102737.59;;;18.18;47.67
28797;BME280;24974;54.444;18.560;2023-05-19T08:57:39;102731.94;;;18.09;47.16
28797;BME280;24974;54.444;18.560;2023-05-19T09:00:11;102728.97;;;17.92;48.12
28797;BME280;24974;54.444;18.560;2023-05-19T09:02:43;102736.41;;;17.97;48.30
28797;BME280;24974;54.444;18.560;2023-05-19T09:05:15;102745.44;;;18.30;47.17
28797;BME280;24974;54.444;18.560;2023-05-19T09:07:46;102737.22;;;17.83;48.24
28797;BME280;24974;54.444;18.560;2023-05-19T09:10:17;102741.63;;;18.12;47.08
28797;BME280;24974;54.444;18.560;2023-05-19T09:12:48;102741.94;;;18.10;47.33
28797;BME280;24974;54.444;18.560;2023-05-19T09:15:25;102750.59;;;18.09;47.80
28797;BME280;24974;54.444;18.560;2023-05-19T09:18:16;102740.69;;;18.16;47.98
28797;BME280;24974;54.444;18.560;2023-05-19T09:20:47;102743.97;;;18.32;47.18
28797;BME280;24974;54.444;18.560;2023-05-19T09:23:18;102747.31;;;18.57;47.52
28797;BME280;24974;54.444;18.560;2023-05-19T09:25:52;102735.88;;;18.08;48.33
28797;BME280;24974;54.444;18.560;2023-05-19T09:28:34;102739.59;;;17.76;48.73
28797;BME280;24974;54.444;18.560;2023-05-19T09:31:08;102729.47;;;18.58;47.21
28797;BME280;24974;54.444;18.560;2023-05-19T09:33:40;102738.44;;;18.68;47.26
28797;BME280;24974;54.444;18.560;2023-05-19T09:36:12;102737.38;;;18.28;47.52
28797;BME280;24974;54.444;18.560;2023-05-19T09:38:44;102735.03;;;18.08;48.61
28797;BME280;24974;54.444;18.560;2023-05-19T09:41:15;102727.50;;;18.22;47.31
28797;BME280;24974;54.444;18.560;2023-05-19T09:43:53;102733.09;;;17.95;48.37
28797;BME280;24974;54.444;18.560;2023-05-19T09:46:24;102728.84;;;18.11;47.56
28797;BME280;24974;54.444;18.560;2023-05-19T09:48:58;102727.19;;;18.24;47.14
28797;BME280;24974;54.444;18.560;2023-05-19T09:51:29;102716.84;;;18.38;47.09
28797;BME280;24974;54.444;18.560;2023-05-19T09:53:59;102727.44;;;18.50;46.35
28797;BME280;24974;54.444;18.560;2023-05-19T09:56:33;102727.00;;;18.06;46.91
28797;BME280;24974;54.444;18.560;2023-05-19T09:59:05;102721.56;;;17.87;47.35
28797;BME280;24974;54.444;18.560;2023-05-19T10:01:37;102726.38;;;17.68;47.02
28797;BME280;24974;54.444;18.560;2023-05-19T10:04:11;102730.59;;;17.52;47.41
28797;BME280;24974;54.444;18.560;2023-05-19T10:06:44;102733.06;;;17.67;47.84
28797;BME280;24974;54.444;18.560;2023-05-19T10:09:15;102731.91;;;17.41;48.26
28797;BME280;24974;54.444;18.560;2023-05-19T10:11:47;102728.34;;;17.68;47.24
28797;BME280;24974;54.444;18.560;2023-05-19T10:14:21;102728.31;;;17.54;46.98
28797;BME280;24974;54.444;18.560;2023-05-19T10:16:56;102726.81;;;17.75;46.41
28797;BME280;24974;54.444;18.560;2023-05-19T10:19:28;102721.75;;;17.77;45.91
28797;BME280;24974;54.444;18.560;2023-05-19T10:21:59;102729.22;;;18.45;43.70
28797;BME280;24974;54.444;18.560;2023-05-19T10:24:30;102726.06;;;18.11;43.97
28797;BME280;24974;54.444;18.560;2023-05-19T10:27:04;102722.97;;;18.12;43.61
28797;BME280;24974;54.444;18.560;2023-05-19T10:29:41;102721.44;;;17.79;44.47
28797;BME280;24974;54.444;18.560;2023-05-19T10:32:15;102719.00;;;17.91;44.43
28797;BME280;24974;54.444;18.560;2023-05-19T10:40:35;102714.28;;;17.45;45.79
28797;BME280;24974;54.444;18.560;2023-05-19T10:45:50;102710.50;;;17.96;44.26
28797;BME280;24974;54.444;18.560;2023-05-19T10:48:21;102717.44;;;17.11;45.91
28797;BME280;24974;54.444;18.560;2023-05-19T10:50:53;102716.00;;;17.74;44.35
28797;BME280;24974;54.444;18.560;2023-05-19T10:53:32;102717.97;;;17.73;44.87
28797;BME280;24974;54.444;18.560;2023-05-19T10:56:04;102711.66;;;17.68;44.77
28797;BME280;24974;54.444;18.560;2023-05-19T11:01:15;102709.09;;;17.71;44.51
28797;BME280;24974;54.444;18.560;2023-05-19T11:03:53;102702.47;;;17.53;44.72
28797;BME280;24974;54.444;18.560;2023-05-19T11:06:28;102712.91;;;17.75;44.33
28797;BME280;24974;54.444;18.560;2023-05-19T11:09:12;102712.28;;;17.78;45.22
28797;BME280;24974;54.444;18.560;2023-05-19T11:11:48;102704.13;;;17.68;46.03
28797;BME280;24974;54.444;18.560;2023-05-19T11:14:21;102719.84;;;17.45;46.00
28797;BME280;24974;54.444;18.560;2023-05-19T11:16:56;102715.44;;;17.44;46.38
28797;BME280;24974;54.444;18.560;2023-05-19T11:22:10;102712.63;;;17.17;45.38
28797;BME280;24974;54.444;18.560;2023-05-19T11:24:45;102720.66;;;17.32;45.14
28797;BME280;24974;54.444;18.560;2023-05-19T11:27:30;102717.81;;;17.51;44.80
28797;BME280;24974;54.444;18.560;2023-05-19T11:32:37;102713.44;;;17.17;46.83
28797;BME280;24974;54.444;18.560;2023-05-19T11:35:13;102712.28;;;17.78;45.91
28797;BME280;24974;54.444;18.560;2023-05-19T11:37:47;102710.75;;;17.86;46.13
28797;BME280;24974;54.444;18.560;2023-05-19T11:40:20;102710.44;;;17.74;46.22
28797;BME280;24974;54.444;18.560;2023-05-19T11:42:51;102708.59;;;17.83;46.11
28797;BME280;24974;54.444;18.560;2023-05-19T11:45:26;102704.63;;;17.56;46.28
28797;BME280;24974;54.444;18.560;2023-05-19T11:47:58;102713.09;;;18.06;44.96
28797;BME280;24974;54.444;18.560;2023-05-19T11:50:30;102713.53;;;17.86;46.03
28797;BME280;24974;54.444;18.560;2023-05-19T11:53:01;102723.78;;;18.27;44.40
28797;BME280;24974;54.444;18.560;2023-05-19T11:55:32;102727.75;;;17.98;45.89
28797;BME280;24974;54.444;18.560;2023-05-19T11:58:03;102715.38;;;17.91;46.34
28797;BME280;24974;54.444;18.560;2023-05-19T12:00:36;102728.75;;;18.16;45.22
28797;BME280;24974;54.444;18.560;2023-05-19T12:03:09;102736.09;;;18.48;44.14
28797;BME280;24974;54.444;18.560;2023-05-19T12:05:43;102741.34;;;17.86;45.40
28797;BME280;24974;54.444;18.560;2023-05-19T12:08:16;102741.53;;;18.17;44.82
28797;BME280;24974;54.444;18.560;2023-05-19T12:10:48;102745.44;;;18.30;46.08
28797;BME280;24974;54.444;18.560;2023-05-19T12:13:20;102747.03;;;18.44;46.14
28797;BME280;24974;54.444;18.560;2023-05-19T12:15:52;102737.00;;;17.94;47.61
28797;BME280;24974;54.444;18.560;2023-05-19T12:18:27;102738.16;;;18.06;47.12
28797;BME280;24974;54.444;18.560;2023-05-19T12:20:59;102751.19;;;18.33;46.12
28797;BME280;24974;54.444;18.560;2023-05-19T12:23:31;102756.84;;;18.28;46.26
28797;BME280;24974;54.444;18.560;2023-05-19T12:26:03;102757.31;;;18.58;45.99
28797;BME280;24974;54.444;18.560;2023-05-19T12:28:34;102760.56;;;18.37;45.98
28797;BME280;24974;54.444;18.560;2023-05-19T12:31:06;102767.94;;;17.92;47.56
28797;BME280;24974;54.444;18.560;2023-05-19T12:33:37;102770.19;;;18.04;47.95
28797;BME280;24974;54.444;18.560;2023-05-19T12:36:08;102763.91;;;17.98;48.58
28797;BME280;24974;54.444;18.560;2023-05-19T12:38:39;102766.44;;;18.36;48.10
28797;BME280;24974;54.444;18.560;2023-05-19T12:41:11;102772.09;;;18.44;46.77
28797;BME280;24974;54.444;18.560;2023-05-19T12:43:43;102772.63;;;18.33;47.81
28797;BME280;24974;54.444;18.560;2023-05-19T12:46:14;102769.13;;;18.41;47.94
28797;BME280;24974;54.444;18.560;2023-05-19T12:48:46;102764.19;;;18.24;49.00
28797;BME280;24974;54.444;18.560;2023-05-19T12:51:18;102756.34;;;18.12;48.37
28797;BME280;24974;54.444;18.560;2023-05-19T12:53:49;102756.47;;;18.07;48.25
28797;BME280;24974;54.444;18.560;2023-05-19T12:56:20;102755.50;;;18.39;48.66
28797;BME280;24974;54.444;18.560;2023-05-19T12:58:54;102752.88;;;17.93;49.03
28797;BME280;24974;54.444;18.560;2023-05-19T13:01:27;102757.78;;;18.37;48.91
28797;BME280;24974;54.444;18.560;2023-05-19T13:03:58;102758.56;;;18.52;47.72
28797;BME280;24974;54.444;18.560;2023-05-19T13:06:30;102755.00;;;18.37;47.88
28797;BME280;24974;54.444;18.560;2023-05-19T13:09:02;102760.44;;;18.42;48.20
28797;BME280;24974;54.444;18.560;2023-05-19T13:11:33;102747.53;;;17.97;49.76
28797;BME280;24974;54.444;18.560;2023-05-19T13:14:04;102751.38;;;17.54;50.29
28797;BME280;24974;54.444;18.560;2023-05-19T13:16:35;102747.91;;;18.31;48.56
28797;BME280;24974;54.444;18.560;2023-05-19T13:19:06;102744.34;;;17.89;50.14
28797;BME280;24974;54.444;18.560;2023-05-19T13:21:37;102739.16;;;18.24;49.98
28797;BME280;24974;54.444;18.560;2023-05-19T13:24:08;102739.94;;;17.42;51.91
28797;BME280;24974;54.444;18.560;2023-05-19T13:26:39;102738.47;;;16.98;51.60
28797;BME280;24974;54.444;18.560;2023-05-19T13:29:11;102732.66;;;17.60;50.17
28797;BME280;24974;54.444;18.560;2023-05-19T13:31:41;102734.13;;;17.99;49.87
28797;BME280;24974;54.444;18.560;2023-05-19T13:34:12;102738.06;;;17.98;50.40
28797;BME280;24974;54.444;18.560;2023-05-19T13:36:43;102729.09;;;17.73;48.77
28797;BME280;24974;54.444;18.560;2023-05-19T13:39:17;102732.53;;;18.34;46.81
28797;BME280;24974;54.444;18.560;2023-05-19T13:41:48;102728.56;;;17.71;48.94
28797;BME280;24974;54.444;18.560;2023-05-19T13:44:18;102733.09;;;17.95;49.54
28797;BME280;24974;54.444;18.560;2023-05-19T13:46:49;102732.66;;;18.29;49.12
28797;BME280;24974;54.444;18.560;2023-05-19T13:49:20;102727.13;;;17.87;50.09
28797;BME280;24974;54.444;18.560;2023-05-19T13:51:55;102716.81;;;18.02;48.96
28797;BME280;24974;54.444;18.560;2023-05-19T13:54:26;102725.03;;;17.52;50.39
28797;BME280;24974;54.444;18.560;2023-05-19T13:56:57;102712.78;;;17.94;49.03
28797;BME280;24974;54.444;18.560;2023-05-19T13:59:28;102716.50;;;16.64;52.71
28797;BME280;24974;54.444;18.560;2023-05-19T14:01:59;102714.72;;;17.52;51.38
28797;BME280;24974;54.444;18.560;2023-05-19T14:04:32;102709.69;;;17.08;53.34
28797;BME280;24974;54.444;18.560;2023-05-19T14:07:04;102723.22;;;17.28;50.84
28797;BME280;24974;54.444;18.560;2023-05-19T14:09:35;102721.41;;;17.51;50.05
28797;BME280;24974;54.444;18.560;2023-05-19T14:12:06;102709.63;;;17.73;50.29
28797;BME280;24974;54.444;18.560;2023-05-19T14:14:39;102717.41;;;17.57;51.02
28797;BME280;24974;54.444;18.560;2023-05-19T14:17:10;102722.53;;;17.64;50.68
28797;BME280;24974;54.444;18.560;2023-05-19T14:19:41;102738.41;;;17.03;51.33
28797;BME280;24974;54.444;18.560;2023-05-19T14:22:12;102726.47;;;16.65;53.13
28797;BME280;24974;54.444;18.560;2023-05-19T14:24:43;102736.00;;;16.59;53.87
28797;BME280;24974;54.444;18.560;2023-05-19T14:27:14;102732.66;;;16.81;53.79
28797;BME280;24974;54.444;18.560;2023-05-19T14:29:45;102729.88;;;16.81;54.00
28797;BME280;24974;54.444;18.560;2023-05-19T14:32:16;102732.34;;;16.45;54.77
28797;BME280;24974;54.444;18.560;2023-05-19T14:34:47;102730.59;;;16.49;53.93
28797;BME280;24974;54.444;18.560;2023-05-19T14:37:18;102736.25;;;16.82;53.37
28797;BME280;24974;54.444;18.560;2023-05-19T14:39:49;102731.72;;;16.67;54.00
28797;BME280;24974;54.444;18.560;2023-05-19T14:42:20;102737.44;;;16.75;53.57
28797;BME280;24974;54.444;18.560;2023-05-19T14:44:51;102734.72;;;16.33;54.71
28797;BME280;24974;54.444;18.560;2023-05-19T14:47:22;102732.72;;;16.95;53.09
28797;BME280;24974;54.444;18.560;2023-05-19T14:49:53;102727.41;;;16.80;53.64
28797;BME280;24974;54.444;18.560;2023-05-19T14:52:24;102721.66;;;16.52;53.96
28797;BME280;24974;54.444;18.560;2023-05-19T14:54:55;102719.44;;;16.54;53.48
28797;BME280;24974;54.444;18.560;2023-05-19T14:57:26;102721.66;;;16.52;53.32
28797;BME280;24974;54.444;18.560;2023-05-19T14:59:57;102724.06;;;16.59;53.60
28797;BME280;24974;54.444;18.560;2023-05-19T15:02:28;102721.97;;;16.88;53.09
28797;BME280;24974;54.444;18.560;2023-05-19T15:04:59;102719.81;;;16.85;53.01
28797;BME280;24974;54.444;18.560;2023-05-19T15:07:30;102717.56;;;16.68;53.34
28797;BME280;24974;54.444;18.560;2023-05-19T15:10:01;102708.69;;;16.66;53.67
28797;BME280;24974;54.444;18.560;2023-05-19T15:12:32;102710.56;;;16.14;53.92
28797;BME280;24974;54.444;18.560;2023-05-19T15:15:03;102711.72;;;16.70;51.85
28797;BME280;24974;54.444;18.560;2023-05-19T15:17:34;102710.22;;;16.77;51.89
28797;BME280;24974;54.444;18.560;2023-05-19T15:20:06;102709.69;;;16.57;52.37
28797;BME280;24974;54.444;18.560;2023-05-19T15:22:37;102705.38;;;16.27;53.82
28797;BME280;24974;54.444;18.560;2023-05-19T15:25:08;102709.00;;;16.65;52.98
28797;BME280;24974;54.444;18.560;2023-05-19T15:27:39;102707.59;;;16.30;54.54
28797;BME280;24974;54.444;18.560;2023-05-19T15:30:10;102705.84;;;16.34;54.71
28797;BME280;24974;54.444;18.560;2023-05-19T15:32:41;102702.28;;;16.71;52.91
28797;BME280;24974;54.444;18.560;2023-05-19T15:35:12;102697.97;;;16.41;54.15
28797;BME280;24974;54.444;18.560;2023-05-19T15:37:43;102698.78;;;15.80;55.99
28797;BME280;24974;54.444;18.560;2023-05-19T15:40:13;102712.00;;;16.31;53.57
28797;BME280;24974;54.444;18.560;2023-05-19T15:42:44;102705.84;;;16.15;54.61
28797;BME280;24974;54.444;18.560;2023-05-19T15:45:15;102702.41;;;16.61;52.95
28797;BME280;24974;54.444;18.560;2023-05-19T15:47:46;102718.09;;;16.70;53.68
28797;BME280;24974;54.444;18.560;2023-05-19T15:50:17;102708.78;;;16.42;54.35
28797;BME280;24974;54.444;18.560;2023-05-19T15:52:48;102706.66;;;16.15;53.85
28797;BME280;24974;54.444;18.560;2023-05-19T15:55:19;102704.13;;;16.57;53.60
28797;BME280;24974;54.444;18.560;2023-05-19T15:57:50;102705.69;;;16.44;54.31
28797;BME280;24974;54.444;18.560;2023-05-19T16:00:21;102704.28;;;16.46;54.81
28797;BME280;24974;54.444;18.560;2023-05-19T16:02:52;102700.41;;;16.99;53.86
28797;BME280;24974;54.444;18.560;2023-05-19T16:05:22;102696.25;;;16.07;56.04
28797;BME280;24974;54.444;18.560;2023-05-19T16:07:53;102695.56;;;16.15;55.08
28797;BME280;24974;54.444;18.560;2023-05-19T16:10:24;102698.88;;;16.74;53.42
28797;BME280;24974;54.444;18.560;2023-05-19T16:12:55;102694.78;;;17.04;53.03
28797;BME280;24974;54.444;18.560;2023-05-19T16:15:25;102698.66;;;16.70;54.69
28797;BME280;24974;54.444;18.560;2023-05-19T16:17:56;102692.88;;;16.86;54.23
28797;BME280;24974;54.444;18.560;2023-05-19T16:20:27;102694.44;;;16.16;54.52
28797;BME280;24974;54.444;18.560;2023-05-19T16:22:59;102690.25;;;15.23;56.64
28797;BME280;24974;54.444;18.560;2023-05-19T16:25:30;102688.16;;;15.87;55.72
28797;BME280;24974;54.444;18.560;2023-05-19T16:28:01;102683.13;;;16.32;54.51
28797;BME280;24974;54.444;18.560;2023-05-19T16:30:31;102675.84;;;16.36;54.40
28797;BME280;24974;54.444;18.560;2023-05-19T16:33:02;102681.84;;;16.43;54.06
28797;BME280;24974;54.444;18.560;2023-05-19T16:35:33;102676.66;;;16.17;54.56
28797;BME280;24974;54.444;18.560;2023-05-19T16:38:04;102675.06;;;15.92;55.53
28797;BME280;24974;54.444;18.560;2023-05-19T16:40:34;102664.22;;;16.34;54.76
28797;BME280;24974;54.444;18.560;2023-05-19T16:43:05;102663.03;;;16.21;55.37
28797;BME280;24974;54.444;18.560;2023-05-19T16:45:36;102667.91;;;16.48;54.58
28797;BME280;24974;54.444;18.560;2023-05-19T16:48:07;102670.59;;;16.34;55.64
28797;BME280;24974;54.444;18.560;2023-05-19T16:50:38;102671.25;;;16.64;54.82
28797;BME280;24974;54.444;18.560;2023-05-19T16:53:09;102682.22;;;15.51;57.38
28797;BME280;24974;54.444;18.560;2023-05-19T16:55:39;102682.81;;;15.72;57.03
28797;BME280;24974;54.444;18.560;2023-05-19T16:58:10;102678.47;;;15.65;57.28
28797;BME280;24974;54.444;18.560;2023-05-19T17:00:41;102692.84;;;15.91;56.83
28797;BME280;24974;54.444;18.560;2023-05-19T17:03:12;102691.97;;;16.34;56.10
28797;BME280;24974;54.444;18.560;2023-05-19T17:05:43;102679.63;;;16.45;55.30
28797;BME280;24974;54.444;18.560;2023-05-19T17:08:14;102688.06;;;16.16;56.54
28797;BME280;24974;54.444;18.560;2023-05-19T17:10:46;102688.25;;;15.82;57.40
28797;BME280;24974;54.444;18.560;2023-05-19T17:13:17;102692.84;;;15.91;57.25
28797;BME280;24974;54.444;18.560;2023-05-19T17:15:50;102692.41;;;16.60;55.83
28797;BME280;24974;54.444;18.560;2023-05-19T17:18:22;102682.16;;;16.41;55.92
28797;BME280;24974;54.444;18.560;2023-05-19T17:20:52;102689.22;;;16.71;55.89
28797;BME280;24974;54.444;18.560;2023-05-19T17:23:23;102678.31;;;16.56;56.45
28797;BME280;24974;54.444;18.560;2023-05-19T17:25:54;102681.38;;;16.36;56.81
28797;BME280;24974;54.444;18.560;2023-05-19T17:28:25;102680.13;;;16.28;56.54
28797;BME280;24974;54.444;18.560;2023-05-19T17:30:56;102681.50;;;15.88;58.24
28797;BME280;24974;54.444;18.560;2023-05-19T17:33:26;102687.16;;;16.02;57.67
28797;BME280;24974;54.444;18.560;2023-05-19T17:35:57;102687.69;;;16.41;56.95
28797;BME280;24974;54.444;18.560;2023-05-19T17:38:28;102681.13;;;15.76;58.51
28797;BME280;24974;54.444;18.560;2023-05-19T17:40:59;102680.31;;;15.94;57.87
28797;BME280;24974;54.444;18.560;2023-05-19T17:43:30;102680.78;;;15.53;59.08
28797;BME280;24974;54.444;18.560;2023-05-19T17:46:01;102691.88;;;16.01;58.07
28797;BME280;24974;54.444;18.560;2023-05-19T17:48:32;102680.78;;;15.53;59.26